Tuesday, September 30, 2014
17:58 UTC
  |  Log In   |  Register Free
Airport Search:

Jackson-Evers International Airport
(KJAN)

FAA data valid effective September 18, 2014 - November 13, 2014 (unless otherwise noted).

 
 
 
 
 
 
 
 
 
 
 
 
 
 

Current Aviation Weather for Jackson-Evers International Airport (KJAN)

The most recent METAR observation for KJAN was updated at: 1712
METAR Summary (Translated METAR)
KJAN
301654Z 00000KT 10SM BKN035 BKN044 BKN055 28/19 A2993 RMK AO2 SLP132 T02830189
KHKS
301653Z 15004KT 10SM FEW040 BKN060 29/19 A2993 RMK AO2 SLP128 T02890189
(7.6 nm NW from KJAN)
KJVW
301655Z AUTO 16005KT 10SM CLR 30/27 A2993 RMK AO2
(16.9 nm SW from KJAN)
TAF Summary (Translated TAF)
KJAN
301149Z 3012/0112 VRB04KT P6SM SKC
KHKS
(7.6 nm NW from KJAN)
301149Z 3012/0112 VRB04KT P6SM SKC
  Airport Weather Conditions for KJAN

 Current Weather at JAN
83° F
Mostly Cloudy
North winds at 0.0 mph
JAN NOAA Radar

Pressure: 29.93 in
Humidity: 57%
Wind: Calm
Dew Point: 66.0°F
Visibility: 10.00 mi


Airport Weather Forecast for KJAN

Translated METAR and TAF for KJAN
Translated METAR for KJAN (1752 UTC 30 September 2014)
found at http://aviationweather.gov/adds/metars/
 
METAR text: KJAN 301654Z 00000KT 10SM BKN035 BKN044 BKN055 28/19 A2993 RMK AO2 SLP132 T02830189
Conditions at: KJAN (JACKSON , MS, US) observed 1654 UTC 30 September 2014
Temperature: 28.3°C (83°F)
Dewpoint: 18.9°C (66°F) [RH = 57%]
Pressure (altimeter): 29.93 inches Hg (1013.6 mb)
[Sea-level pressure: 1013.2 mb]
Winds: calm
Visibility: 10 or more miles (16+ km)
Ceiling: 3500 feet AGL
Clouds: broken clouds at 3500 feet AGL
broken clouds at 4400 feet AGL
broken clouds at 5500 feet AGL
Weather: no significant weather observed at this time
Translated TAF for KJAN
Forecast for: KJAN (JACKSON , MS, US)
TAF Text: KJAN 301720Z 3018/0118 VRB04KT P6SM SCT050
Forecast period: 1800 UTC 30 September 2014 to 1800 UTC 01 October 2014
Forecast type: FROM: standard forecast or significant change
Winds: variable direction winds at 5 MPH (4 knots; 2.1 m/s)
Visibility: 6 or more miles (10+ km)
Clouds: scattered clouds at 5000 feet AGL
Weather: no significant weather forecast for this period

Find All Airport Services Find A Hotel Find A Rental Car Find A Golf Course Find A Restaurant $100 Hamburger



FBO's on the Field
FBO Company Facility Photos Services Transportation Aviation Fuel Prices: Prices include tax
Catering Weather Repair Courtesy Rental Type 100LL JetA JetA+ MOGAS 8087
 
Atlantic Aviation

This FBO has not yet been rated
FS:Chevron
Last Updated: Sep-29
Login to update fuel prices
SS:
Contact Atlantic AviationMore FBO Information
 
Add another FBO Facility Photos Catering Weather Repair Courtesy Rental Type 100LL JetA JetA+ MOGAS 8087
Services Transportation Aviation Fuel Prices: Prices include tax


model-print
model-print
model-print
model-print